AAL3316 KMIA-TNCM
Flight info
| Callsign | AAL3316 |
|---|---|
| Flight time | N/A |
| Altitude | 37000 |
| Route | KLADA2 BITAC Y290 SLUGO |
| Aircraft | B738/M-V/N |
Departure
| Time | N/A |
|---|---|
| Airport | Miami International Airport (KMIA) |
Arrival
| Time | 2026-05-06 21:11 |
|---|---|
| Airport | Princess Juliana International Airport (TNCM) |
| Time | Latitude | Longitude | Altitude | Speed | Heading |
|---|---|---|---|---|---|
| 2026-05-06 20:17 | 20.24085 | -68.96287 | 39114 ft | 518 kts | 127° |
| 2026-05-06 20:18 | 20.22028 | -68.93158 | 39114 ft | 518 kts | 127° |
| 2026-05-06 20:18 | 20.16400 | -68.84627 | 39113 ft | 518 kts | 127° |
| 2026-05-06 20:19 | 20.11560 | -68.77300 | 39113 ft | 518 kts | 127° |
| 2026-05-06 20:19 | 20.07439 | -68.71056 | 39113 ft | 519 kts | 127° |
| 2026-05-06 20:20 | 20.04109 | -68.65698 | 39114 ft | 519 kts | 125° |
| 2026-05-06 20:20 | 20.00178 | -68.59313 | 39114 ft | 519 kts | 126° |
| 2026-05-06 20:21 | 19.96209 | -68.52905 | 39113 ft | 518 kts | 126° |
| 2026-05-06 20:21 | 19.92235 | -68.46507 | 39113 ft | 518 kts | 126° |
| 2026-05-06 20:22 | 19.88269 | -68.40117 | 39113 ft | 518 kts | 126° |
| 2026-05-06 20:22 | 19.84306 | -68.33712 | 39115 ft | 518 kts | 126° |
| 2026-05-06 20:23 | 19.80330 | -68.27315 | 39116 ft | 518 kts | 126° |
| 2026-05-06 20:24 | 19.72004 | -68.13952 | 39112 ft | 518 kts | 126° |
| 2026-05-06 20:24 | 19.68043 | -68.07606 | 39112 ft | 518 kts | 126° |
| 2026-05-06 20:25 | 19.64070 | -68.01224 | 39112 ft | 518 kts | 126° |
| 2026-05-06 20:25 | 19.60082 | -67.94850 | 39113 ft | 518 kts | 126° |
| 2026-05-06 20:26 | 19.56086 | -67.88478 | 39113 ft | 518 kts | 126° |
| 2026-05-06 20:26 | 19.52096 | -67.82122 | 39113 ft | 518 kts | 127° |
| 2026-05-06 20:27 | 19.48109 | -67.75770 | 39114 ft | 518 kts | 127° |
| 2026-05-06 20:27 | 19.44117 | -67.69402 | 39114 ft | 518 kts | 127° |
| 2026-05-06 20:28 | 19.40128 | -67.63053 | 39115 ft | 518 kts | 127° |
| 2026-05-06 20:28 | 19.36154 | -67.56747 | 39115 ft | 517 kts | 127° |
| 2026-05-06 20:29 | 19.32160 | -67.50417 | 39116 ft | 517 kts | 127° |
| 2026-05-06 20:29 | 19.28238 | -67.44202 | 39116 ft | 516 kts | 127° |
| 2026-05-06 20:30 | 19.22231 | -67.34707 | 39119 ft | 517 kts | 127° |
| 2026-05-06 20:31 | 19.18226 | -67.28388 | 39118 ft | 516 kts | 127° |
| 2026-05-06 20:31 | 19.14224 | -67.22080 | 39117 ft | 517 kts | 127° |
| 2026-05-06 20:32 | 19.10247 | -67.15814 | 39119 ft | 516 kts | 128° |
| 2026-05-06 20:32 | 19.06254 | -67.09496 | 39116 ft | 516 kts | 127° |
| 2026-05-06 20:33 | 19.02252 | -67.03179 | 39116 ft | 516 kts | 128° |
| 2026-05-06 20:33 | 18.98254 | -66.96886 | 39116 ft | 516 kts | 128° |
| 2026-05-06 20:34 | 18.94254 | -66.90597 | 39115 ft | 515 kts | 128° |
| 2026-05-06 20:34 | 18.90290 | -66.84348 | 39116 ft | 515 kts | 128° |
| 2026-05-06 20:35 | 18.86289 | -66.78075 | 39115 ft | 516 kts | 128° |
| 2026-05-06 20:35 | 18.82282 | -66.71805 | 39114 ft | 515 kts | 128° |
| 2026-05-06 20:36 | 18.78355 | -66.65475 | 39107 ft | 518 kts | 122° |
| 2026-05-06 20:36 | 18.75805 | -66.58321 | 39110 ft | 525 kts | 104° |
| 2026-05-06 20:37 | 18.74963 | -66.50670 | 39110 ft | 526 kts | 94° |
| 2026-05-06 20:37 | 18.74626 | -66.43012 | 39106 ft | 526 kts | 94° |
| 2026-05-06 20:38 | 18.74167 | -66.35314 | 39097 ft | 526 kts | 94° |
| 2026-05-06 20:38 | 18.73658 | -66.27575 | 39095 ft | 526 kts | 95° |
| 2026-05-06 20:39 | 18.73161 | -66.19911 | 39096 ft | 527 kts | 95° |
| 2026-05-06 20:39 | 18.72647 | -66.12202 | 39097 ft | 527 kts | 95° |
| 2026-05-06 20:40 | 18.72123 | -66.04504 | 39100 ft | 527 kts | 95° |
| 2026-05-06 20:40 | 18.71594 | -65.96788 | 39103 ft | 527 kts | 95° |
| 2026-05-06 20:41 | 18.71059 | -65.89076 | 39105 ft | 528 kts | 95° |
| 2026-05-06 20:41 | 18.70519 | -65.81340 | 39106 ft | 527 kts | 95° |
| 2026-05-06 20:42 | 18.70071 | -65.74946 | 39108 ft | 527 kts | 95° |
| 2026-05-06 20:42 | 18.69540 | -65.67231 | 39109 ft | 527 kts | 95° |
| 2026-05-06 20:43 | 18.68996 | -65.59516 | 39111 ft | 527 kts | 96° |
| 2026-05-06 20:43 | 18.68440 | -65.51791 | 39048 ft | 529 kts | 96° |
| 2026-05-06 20:43 | 18.68160 | -65.47920 | 38748 ft | 529 kts | 96° |
| 2026-05-06 20:44 | 18.67884 | -65.44115 | 38332 ft | 524 kts | 95° |
| 2026-05-06 20:44 | 18.67604 | -65.40273 | 37585 ft | 528 kts | 95° |
| 2026-05-06 20:44 | 18.67299 | -65.36362 | 36933 ft | 528 kts | 96° |
| 2026-05-06 20:44 | 18.66802 | -65.32540 | 36288 ft | 528 kts | 99° |
| 2026-05-06 20:45 | 18.66164 | -65.28716 | 35615 ft | 528 kts | 100° |
| 2026-05-06 20:45 | 18.65499 | -65.24952 | 34934 ft | 528 kts | 100° |
| 2026-05-06 20:45 | 18.64846 | -65.21158 | 34526 ft | 522 kts | 99° |
| 2026-05-06 20:45 | 18.64211 | -65.17393 | 34515 ft | 511 kts | 99° |
| 2026-05-06 20:46 | 18.63597 | -65.13707 | 34405 ft | 510 kts | 99° |
| 2026-05-06 20:46 | 18.62996 | -65.10092 | 33882 ft | 506 kts | 98° |
| 2026-05-06 20:46 | 18.62387 | -65.06419 | 33115 ft | 509 kts | 98° |
| 2026-05-06 20:46 | 18.61775 | -65.02733 | 32262 ft | 513 kts | 98° |
| 2026-05-06 20:47 | 18.61167 | -64.99010 | 31431 ft | 516 kts | 98° |
| 2026-05-06 20:47 | 18.60563 | -64.95276 | 30666 ft | 516 kts | 98° |
| 2026-05-06 20:47 | 18.59957 | -64.91559 | 30043 ft | 513 kts | 98° |
| 2026-05-06 20:47 | 18.59353 | -64.87873 | 29476 ft | 509 kts | 98° |
| 2026-05-06 20:48 | 18.58748 | -64.84191 | 28920 ft | 505 kts | 98° |
| 2026-05-06 20:48 | 18.58354 | -64.81801 | 28558 ft | 502 kts | 98° |
| 2026-05-06 20:48 | 18.56909 | -64.73070 | 27231 ft | 491 kts | 99° |
| 2026-05-06 20:49 | 18.56330 | -64.69585 | 26695 ft | 487 kts | 99° |
| 2026-05-06 20:49 | 18.55747 | -64.66075 | 26154 ft | 483 kts | 99° |
| 2026-05-06 20:49 | 18.55169 | -64.62599 | 25611 ft | 479 kts | 99° |
| 2026-05-06 20:49 | 18.54597 | -64.59167 | 25074 ft | 475 kts | 99° |
| 2026-05-06 20:50 | 18.54024 | -64.55728 | 24524 ft | 472 kts | 99° |
| 2026-05-06 20:50 | 18.53458 | -64.52340 | 23957 ft | 469 kts | 99° |
| 2026-05-06 20:50 | 18.52894 | -64.48970 | 23408 ft | 465 kts | 99° |
| 2026-05-06 20:50 | 18.52335 | -64.45627 | 22866 ft | 461 kts | 99° |
| 2026-05-06 20:51 | 18.51779 | -64.42310 | 22326 ft | 457 kts | 100° |
| 2026-05-06 20:51 | 18.51230 | -64.39030 | 21790 ft | 453 kts | 100° |
| 2026-05-06 20:51 | 18.50681 | -64.35764 | 21256 ft | 449 kts | 100° |
| 2026-05-06 20:51 | 18.50140 | -64.32540 | 20722 ft | 445 kts | 100° |
| 2026-05-06 20:52 | 18.49604 | -64.29352 | 20195 ft | 441 kts | 100° |
| 2026-05-06 20:52 | 18.49069 | -64.26177 | 19665 ft | 437 kts | 100° |
| 2026-05-06 20:52 | 18.48543 | -64.23052 | 19141 ft | 433 kts | 100° |
| 2026-05-06 20:52 | 18.48019 | -64.19948 | 18619 ft | 428 kts | 100° |
| 2026-05-06 20:53 | 18.47500 | -64.16873 | 18099 ft | 424 kts | 100° |
| 2026-05-06 20:53 | 18.47158 | -64.14846 | 17756 ft | 421 kts | 100° |
| 2026-05-06 20:53 | 18.46045 | -64.08286 | 16638 ft | 412 kts | 100° |
| 2026-05-06 20:54 | 18.45543 | -64.05322 | 16131 ft | 408 kts | 100° |
| 2026-05-06 20:54 | 18.45048 | -64.02406 | 15631 ft | 404 kts | 100° |
| 2026-05-06 20:54 | 18.44557 | -63.99499 | 15129 ft | 400 kts | 100° |
| 2026-05-06 20:54 | 18.44078 | -63.96626 | 14634 ft | 396 kts | 100° |
| 2026-05-06 20:55 | 18.43600 | -63.93828 | 14150 ft | 392 kts | 101° |
| 2026-05-06 20:55 | 18.43100 | -63.90988 | 13653 ft | 389 kts | 100° |
| 2026-05-06 20:55 | 18.42633 | -63.88222 | 13161 ft | 386 kts | 101° |
| 2026-05-06 20:55 | 18.42158 | -63.85408 | 12665 ft | 383 kts | 100° |
| 2026-05-06 20:56 | 18.41698 | -63.82704 | 12178 ft | 379 kts | 101° |
| 2026-05-06 20:56 | 18.41227 | -63.79943 | 11681 ft | 375 kts | 100° |
| 2026-05-06 20:56 | 18.40764 | -63.77248 | 11185 ft | 372 kts | 100° |
| 2026-05-06 20:56 | 18.40302 | -63.74617 | 10702 ft | 370 kts | 101° |
| 2026-05-06 20:57 | 18.39845 | -63.71937 | 10387 ft | 361 kts | 100° |
| 2026-05-06 20:57 | 18.39426 | -63.69486 | 10314 ft | 330 kts | 100° |
| 2026-05-06 20:57 | 18.38892 | -63.67251 | 10225 ft | 301 kts | 114° |
| 2026-05-06 20:57 | 18.37761 | -63.65494 | 10172 ft | 286 kts | 131° |
| 2026-05-06 20:58 | 18.36404 | -63.64013 | 10103 ft | 276 kts | 135° |
| 2026-05-06 20:58 | 18.35022 | -63.62654 | 9963 ft | 265 kts | 137° |
| 2026-05-06 20:58 | 18.33705 | -63.61384 | 9698 ft | 250 kts | 137° |
| 2026-05-06 20:58 | 18.32465 | -63.60180 | 9419 ft | 234 kts | 136° |
| 2026-05-06 20:59 | 18.31311 | -63.59053 | 9141 ft | 220 kts | 136° |
| 2026-05-06 20:59 | 18.30225 | -63.57988 | 8898 ft | 206 kts | 136° |
| 2026-05-06 20:59 | 18.29194 | -63.56974 | 8664 ft | 200 kts | 135° |
| 2026-05-06 20:59 | 18.28191 | -63.55985 | 8432 ft | 195 kts | 135° |
| 2026-05-06 21:00 | 18.27205 | -63.55013 | 8208 ft | 192 kts | 135° |
| 2026-05-06 21:00 | 18.26235 | -63.54054 | 7987 ft | 190 kts | 135° |
| 2026-05-06 21:00 | 18.25272 | -63.53101 | 7767 ft | 190 kts | 134° |
| 2026-05-06 21:00 | 18.24321 | -63.52151 | 7547 ft | 188 kts | 134° |
| 2026-05-06 21:01 | 18.23373 | -63.51207 | 7326 ft | 187 kts | 134° |
| 2026-05-06 21:01 | 18.22439 | -63.50278 | 7110 ft | 186 kts | 134° |
| 2026-05-06 21:01 | 18.21502 | -63.49347 | 6890 ft | 185 kts | 134° |
| 2026-05-06 21:01 | 18.20567 | -63.48419 | 6672 ft | 184 kts | 134° |
| 2026-05-06 21:02 | 18.19637 | -63.47497 | 6453 ft | 183 kts | 133° |
| 2026-05-06 21:02 | 18.18713 | -63.46581 | 6236 ft | 182 kts | 133° |
| 2026-05-06 21:02 | 18.17797 | -63.45674 | 6018 ft | 181 kts | 133° |
| 2026-05-06 21:02 | 18.16887 | -63.44773 | 5793 ft | 180 kts | 133° |
| 2026-05-06 21:03 | 18.15978 | -63.43874 | 5570 ft | 179 kts | 133° |
| 2026-05-06 21:03 | 18.15072 | -63.42977 | 5350 ft | 179 kts | 133° |
| 2026-05-06 21:03 | 18.14167 | -63.42082 | 5130 ft | 178 kts | 133° |
| 2026-05-06 21:03 | 18.13265 | -63.41190 | 4912 ft | 177 kts | 133° |
| 2026-05-06 21:04 | 18.12369 | -63.40304 | 4694 ft | 177 kts | 133° |
| 2026-05-06 21:04 | 18.11476 | -63.39422 | 4477 ft | 176 kts | 133° |
| 2026-05-06 21:04 | 18.10598 | -63.38554 | 4259 ft | 176 kts | 134° |
| 2026-05-06 21:04 | 18.09709 | -63.37675 | 4039 ft | 175 kts | 134° |
| 2026-05-06 21:05 | 18.08823 | -63.36800 | 3820 ft | 174 kts | 134° |
| 2026-05-06 21:05 | 18.07942 | -63.35928 | 3600 ft | 174 kts | 134° |
| 2026-05-06 21:05 | 18.07063 | -63.35060 | 3379 ft | 173 kts | 134° |
| 2026-05-06 21:05 | 18.06184 | -63.34192 | 3158 ft | 173 kts | 134° |
| 2026-05-06 21:06 | 18.05310 | -63.33328 | 2936 ft | 172 kts | 134° |
| 2026-05-06 21:06 | 18.04445 | -63.32475 | 2840 ft | 169 kts | 134° |
| 2026-05-06 21:06 | 18.03589 | -63.31630 | 2787 ft | 169 kts | 134° |
| 2026-05-06 21:06 | 18.02734 | -63.30784 | 2743 ft | 170 kts | 134° |
| 2026-05-06 21:07 | 18.01909 | -63.29890 | 2679 ft | 171 kts | 120° |
| 2026-05-06 21:07 | 18.01674 | -63.28701 | 2618 ft | 168 kts | 91° |
| 2026-05-06 21:07 | 18.01730 | -63.27471 | 2495 ft | 170 kts | 84° |
| 2026-05-06 21:07 | 18.01893 | -63.26248 | 2351 ft | 166 kts | 82° |
| 2026-05-06 21:08 | 18.02069 | -63.25049 | 2219 ft | 167 kts | 82° |
| 2026-05-06 21:08 | 18.02240 | -63.23858 | 2087 ft | 161 kts | 82° |
| 2026-05-06 21:08 | 18.02400 | -63.22744 | 1938 ft | 147 kts | 82° |
| 2026-05-06 21:08 | 18.02545 | -63.21727 | 1887 ft | 135 kts | 82° |
| 2026-05-06 21:09 | 18.02682 | -63.20767 | 1781 ft | 133 kts | 82° |
| 2026-05-06 21:09 | 18.02819 | -63.19807 | 1687 ft | 134 kts | 82° |
| 2026-05-06 21:09 | 18.02958 | -63.18839 | 1460 ft | 136 kts | 82° |
| 2026-05-06 21:09 | 18.03103 | -63.17852 | 1153 ft | 136 kts | 82° |
| 2026-05-06 21:10 | 18.03250 | -63.16878 | 967 ft | 134 kts | 81° |
| 2026-05-06 21:10 | 18.03401 | -63.15916 | 789 ft | 135 kts | 82° |
| 2026-05-06 21:10 | 18.03537 | -63.14939 | 583 ft | 135 kts | 82° |
| 2026-05-06 21:10 | 18.03668 | -63.13954 | 404 ft | 134 kts | 83° |
| 2026-05-06 21:11 | 18.03795 | -63.12994 | 228 ft | 134 kts | 82° |
| 2026-05-06 21:11 | 18.03928 | -63.12019 | 39 ft | 131 kts | 82° |
| 2026-05-06 21:11 | 18.04051 | -63.11167 | 9 ft | 98 kts | 82° |
| 2026-05-06 21:11 | 18.04119 | -63.10682 | 8 ft | 41 kts | 82° |
| 2026-05-06 21:12 | 18.04110 | -63.10512 | 8 ft | 5 kts | 89° |
| 2026-05-06 21:12 | 18.04113 | -63.10506 | 8 ft | 1 kts | 30° |
| 2026-05-06 21:12 | 18.04129 | -63.10510 | 8 ft | 6 kts | 326° |
| 2026-05-06 21:12 | 18.04136 | -63.10566 | 8 ft | 9 kts | 262° |
| 2026-05-06 21:13 | 18.04126 | -63.10637 | 8 ft | 11 kts | 262° |
| 2026-05-06 21:13 | 18.04114 | -63.10722 | 8 ft | 13 kts | 262° |
| 2026-05-06 21:13 | 18.04100 | -63.10820 | 8 ft | 15 kts | 261° |
| 2026-05-06 21:13 | 18.04083 | -63.10932 | 8 ft | 16 kts | 261° |
| 2026-05-06 21:14 | 18.04066 | -63.11056 | 8 ft | 18 kts | 261° |
| 2026-05-06 21:14 | 18.04073 | -63.11159 | 8 ft | 12 kts | 327° |
| 2026-05-06 21:14 | 18.04112 | -63.11174 | 8 ft | 4 kts | 346° |
| 2026-05-06 21:14 | 18.04136 | -63.11184 | 8 ft | 4 kts | 313° |
| 2026-05-06 21:15 | 18.04137 | -63.11228 | 8 ft | 8 kts | 262° |
| 2026-05-06 21:15 | 18.04132 | -63.11291 | 8 ft | 9 kts | 301° |
| 2026-05-06 21:15 | 18.04187 | -63.11314 | 8 ft | 7 kts | 350° |
| 2026-05-06 21:15 | 18.04231 | -63.11332 | 8 ft | 6 kts | 324° |
| 2026-05-06 21:16 | 18.04266 | -63.11356 | 8 ft | 6 kts | 340° |
| 2026-05-06 21:16 | 18.04307 | -63.11362 | 8 ft | 6 kts | 352° |
| 2026-05-06 21:16 | 18.04330 | -63.11365 | 8 ft | 1 kts | 352° |
| 2026-05-06 21:16 | 18.04334 | -63.11366 | 8 ft | 0 kts | 352° |
| 2026-05-06 21:17 | 18.04335 | -63.11366 | 8 ft | 0 kts | 352° |